Vanquish — PHCU — position and weather

sailwx.info

Track history (hours):
 
Tides and Currents Weather Stations Pressure Air Temp Water Temp Dewpoint Dewpoint Depression Visibility Wind Speed Wind Dir Waves Ship Positions

Vanquish

Last reported at 2016-Dec-08 05:33 UTC. Time now 2016-Dec-09 09:38 UTC.
Position N 55°35' E 015°24'.

MMSI: 246138952.

Date/timePositionNaut miles runAvg speedWind from/ knotsBaromVisibWave heightAir tempDewpointWater temp
2016-Dec-08 05:33N 55°35' E 015°24'1313.5
2016-Dec-08 04:33N 55°29' E 015°02'1413.6
2016-Dec-08 03:33N 55°23' E 014°41'1313.1
2016-Dec-08 02:33N 55°13' E 014°26'1313.3
2016-Dec-08 01:33N 55°03' E 014°12'5313.4
2016-Dec-07 21:33N 54°44' E 012°45'1413.4
2016-Dec-07 20:32N 54°37' E 012°25'1613.2
2016-Dec-07 19:17N 54°24' E 012°06'1013.7
2016-Dec-07 18:33N 54°25' E 011°49'1313.0
2016-Dec-07 17:33N 54°30' E 011°28'1413.2
2016-Dec-07 16:31N 54°35' E 011°07'1313.9
2016-Dec-07 15:34N 54°34' E 010°44'1413.5
2016-Dec-07 14:33N 54°30' E 010°22'1111.1
2016-Dec-07 13:33N 54°22' E 010°09'2 2.1
2016-Dec-07 12:33N 54°22' E 010°05'7 7.4
2016-Dec-07 11:33N 54°21' E 009°53'7 7.0
2016-Dec-07 10:33N 54°18' E 009°42'11 7.6
2016-Dec-07 09:04N 54°11' E 009°28'11 7.0
2016-Dec-07 07:33N 54°02' E 009°18'8 8.0
2016-Dec-07 06:33N 53°55' E 009°11'2 1.9
2016-Dec-07 05:33N 53°53' E 009°09'9 8.7
2016-Dec-07 04:33N 53°51' E 008°55'1413.7
2016-Dec-07 03:33N 53°58' E 008°35'1414.5
2016-Dec-07 02:33N 53°59' E 008°10'1414.2
2016-Dec-07 01:33N 53°57' E 007°47'1514.5
2016-Dec-07 00:31N 53°53' E 007°22'3114.6
2016-Dec-06 22:23N 53°46' E 006°31'3014.0
2016-Dec-06 20:14N 53°37' E 005°42'2313.1
2016-Dec-06 18:30N 53°29' E 005°06'1212.7
2016-Dec-06 17:33N 53°25' E 004°48'1212.3
2016-Dec-06 16:33N 53°14' E 004°36'1312.8
2016-Dec-06 15:32N 53°03' E 004°25'1312.8
2016-Dec-06 14:33N 52°52' E 004°15'1312.7
2016-Dec-06 13:33N 52°41' E 004°04'1212.5
2016-Dec-06 12:33N 52°30' E 003°55'1212.4
2016-Dec-06 11:33N 52°18' E 003°52'1313.4
2016-Dec-06 10:33N 52°05' E 003°55'1111.1
2016-Dec-06 09:33N 51°58' E 004°09'1010.3
2016-Dec-06 08:34N 51°54' E 004°24'1 1.0
2016-Dec-06 07:32N 51°53' E 004°25'0 0.0
2016-Dec-06 06:32N 51°53' E 004°25'0 0.0
2016-Dec-06 05:32N 51°53' E 004°25'0 0.0
2016-Dec-06 04:31N 51°53' E 004°25'0 0.0
2016-Dec-06 03:31N 51°53' E 004°25'0 0.0
2016-Dec-06 02:32N 51°53' E 004°25'0 0.0
2016-Dec-06 01:32N 51°53' E 004°25'0 0.0
2016-Dec-06 00:31N 51°53' E 004°25'0 0.0
2016-Dec-05 23:31N 51°53' E 004°25'0 0.0
2016-Dec-05 22:31N 51°53' E 004°25'1 1.0
2016-Dec-05 21:33N 51°53' E 004°24'3 2.9
2016-Dec-05 20:33N 51°51' E 004°24'7 7.4
2016-Dec-05 19:33N 51°48' E 004°36'7 6.9
2016-Dec-05 18:33N 51°41' E 004°35'1 0.0
2016-Dec-04 20:16N 51°41' E 004°36'0 0.0
2016-Dec-04 09:22N 51°41' E 004°36'0 0.0
2016-Dec-04 07:28N 51°41' E 004°36'0 0.0
2016-Dec-04 05:28N 51°41' E 004°36'0 0.0
2016-Dec-04 04:22N 51°41' E 004°36'0 0.0
2016-Dec-03 16:28N 51°41' E 004°36'0 0.0
2016-Dec-03 09:25N 51°41' E 004°36'0 0.0
2016-Dec-03 03:22N 51°41' E 004°36'0 0.0
2016-Dec-03 02:28N 51°41' E 004°36'0 0.0
2016-Dec-03 00:25N 51°41' E 004°36'0 0.0
2016-Dec-02 22:19N 51°41' E 004°36'0 0.0
2016-Dec-02 21:31N 51°41' E 004°36'0 0.0
2016-Dec-02 20:22N 51°41' E 004°36'0 0.0
2016-Dec-02 19:19N 51°41' E 004°36'0 0.0
2016-Dec-02 18:28N 51°41' E 004°36'0 0.0
2016-Dec-02 16:07N 51°41' E 004°36'0 0.0
2016-Dec-02 15:28N 51°41' E 004°36'0 0.0
2016-Dec-02 14:25N 51°41' E 004°36'0 0.3
2016-Dec-02 13:25N 51°41' E 004°36'0 0.0
2016-Dec-02 11:13N 51°41' E 004°36'1 1.4
2016-Dec-02 10:33N 51°42' E 004°36'8 8.0
2016-Dec-02 09:33N 51°50' E 004°33'9 9.1
2016-Dec-02 08:34N 51°53' E 004°19'1010.4
2016-Dec-02 07:33N 51°59' E 004°06'1313.0
2016-Dec-02 06:33N 52°01' E 003°45'1713.4
2016-Dec-02 05:18N 52°10' E 003°22'6513.3
2016-Dec-02 00:23N 52°58' E 002°09'1113.4
2016-Dec-01 23:33N 53°05' E 001°54'1313.4
2016-Dec-01 22:33N 53°10' E 001°33'7113.0
2016-Dec-01 17:04N 54°01' E 000°10'714.0
2016-Dec-01 16:33N 54°07' E 000°02'1514.5
2016-Dec-01 15:33N 54°18' W 000°14'4614.1
2016-Dec-01 12:16N 54°52' W 001°08'1013.4
2016-Dec-01 11:33N 54°60' W 001°18'10 9.9
2016-Dec-01 10:32N 55°07' W 001°30'0 0.0
2016-Dec-01 09:32N 55°07' W 001°30'0 0.0
2016-Dec-01 08:32N 55°07' W 001°30'0 0.0
2016-Dec-01 07:32N 55°07' W 001°30'0 0.0
2016-Dec-01 06:32N 55°07' W 001°30'0 0.0
2016-Dec-01 05:32N 55°07' W 001°30'0 0.0
2016-Dec-01 04:29N 55°07' W 001°30'0 0.0
2016-Dec-01 03:32N 55°07' W 001°30'0 0.0
2016-Dec-01 02:32N 55°07' W 001°30'0 0.0
2016-Dec-01 01:32N 55°07' W 001°30'0 0.0
2016-Dec-01 00:32N 55°07' W 001°30'0 0.0
2016-Nov-30 23:32N 55°07' W 001°30'1 1.0
2016-Nov-30 22:33N 55°07' W 001°29'10 9.6
2016-Nov-30 21:33N 55°00' W 001°16'4214.0
2016-Nov-30 18:32N 54°28' W 000°29'1313.0
2016-Nov-30 17:34N 54°18' W 000°15'1212.3
2016-Nov-30 16:33N 54°09' W 000°01'7313.6
2016-Nov-30 11:10N 53°14' E 001°21'913.9
2016-Nov-30 10:33N 53°10' E 001°34'1313.0
2016-Nov-30 09:33N 53°05' E 001°54'7913.0
2016-Nov-30 03:30N 52°11' E 003°28'1313.8
2016-Nov-30 02:33N 52°04' E 003°46'1111.2
2016-Nov-30 01:34N 51°60' E 004°02'1212.1
2016-Nov-30 00:33N 51°53' E 004°19'9 9.5
2016-Nov-29 23:34N 51°50' E 004°33'8 7.7
2016-Nov-29 22:33N 51°42' E 004°36'1 1.0
2016-Nov-29 21:30N 51°41' E 004°36'0 0.0
2016-Nov-29 20:26N 51°41' E 004°36'0 0.0
2016-Nov-29 19:27N 51°41' E 004°36'0 0.0
2016-Nov-29 18:23N 51°41' E 004°36'0 0.0
2016-Nov-29 17:29N 51°41' E 004°36'0 0.0
2016-Nov-29 16:26N 51°41' E 004°36'0 0.0
2016-Nov-29 15:33N 51°41' E 004°36'0 0.0
2016-Nov-29 14:29N 51°41' E 004°36'0 0.0
2016-Nov-29 13:12N 51°41' E 004°36'0 0.0
2016-Nov-29 12:33N 51°41' E 004°36'0 0.0
2016-Nov-29 11:33N 51°41' E 004°36'0 0.0
2016-Nov-29 10:21N 51°41' E 004°36'0 0.0
2016-Nov-29 08:21N 51°41' E 004°36'0 0.0
2016-Nov-29 07:30N 51°41' E 004°36'0 0.0
2016-Nov-29 06:27N 51°41' E 004°36'0 0.0
2016-Nov-29 05:30N 51°41' E 004°36'0 0.0
2016-Nov-29 04:33N 51°41' E 004°36'0 0.0
2016-Nov-29 03:27N 51°41' E 004°36'0 0.0
2016-Nov-29 02:33N 51°41' E 004°36'0 0.0
2016-Nov-29 01:12N 51°41' E 004°36'0 0.0
2016-Nov-28 23:24N 51°41' E 004°36'0 0.0
2016-Nov-28 22:08N 51°41' E 004°36'0 0.0
2016-Nov-28 21:33N 51°41' E 004°36'0 0.0
2016-Nov-28 20:33N 51°41' E 004°36'0 0.0
2016-Nov-28 19:33N 51°41' E 004°36'0 0.0
2016-Nov-28 18:33N 51°41' E 004°36'0 0.0
2016-Nov-28 17:33N 51°41' E 004°36'0 0.0
2016-Nov-28 16:33N 51°41' E 004°36'0 0.0
2016-Nov-28 15:33N 51°41' E 004°36'7 7.1
2016-Nov-28 14:33N 51°48' E 004°37'8 8.2
2016-Nov-28 13:33N 51°51' E 004°24'1110.8
2016-Nov-28 12:33N 51°57' E 004°10'1312.8
2016-Nov-28 11:33N 51°60' E 003°50'8614.4
2016-Nov-28 05:34N 52°59' E 002°07'  
Track history (hours):
 
Tides and Currents Weather Stations Pressure Air Temp Water Temp Dewpoint Dewpoint Depression Visibility Wind Speed Wind Dir Waves Ship Positions

Vanquish

Last reported at 2016-Dec-08 05:33 UTC. Time now 2016-Dec-09 09:38 UTC.
Position N 55°35' E 015°24'.

MMSI: 246138952.

Date/timePositionNaut miles runAvg speedWind from/ knotsBaromVisibWave heightAir tempDewpointWater temp
2016-Dec-08 05:33N 55°35' E 015°24'1313.5
2016-Dec-08 04:33N 55°29' E 015°02'1413.6
2016-Dec-08 03:33N 55°23' E 014°41'1313.1
2016-Dec-08 02:33N 55°13' E 014°26'1313.3
2016-Dec-08 01:33N 55°03' E 014°12'5313.4
2016-Dec-07 21:33N 54°44' E 012°45'1413.4
2016-Dec-07 20:32N 54°37' E 012°25'1613.2
2016-Dec-07 19:17N 54°24' E 012°06'1013.7
2016-Dec-07 18:33N 54°25' E 011°49'1313.0
2016-Dec-07 17:33N 54°30' E 011°28'1413.2
2016-Dec-07 16:31N 54°35' E 011°07'1313.9
2016-Dec-07 15:34N 54°34' E 010°44'1413.5
2016-Dec-07 14:33N 54°30' E 010°22'1111.1
2016-Dec-07 13:33N 54°22' E 010°09'2 2.1
2016-Dec-07 12:33N 54°22' E 010°05'7 7.4
2016-Dec-07 11:33N 54°21' E 009°53'7 7.0
2016-Dec-07 10:33N 54°18' E 009°42'11 7.6
2016-Dec-07 09:04N 54°11' E 009°28'11 7.0
2016-Dec-07 07:33N 54°02' E 009°18'8 8.0
2016-Dec-07 06:33N 53°55' E 009°11'2 1.9
2016-Dec-07 05:33N 53°53' E 009°09'9 8.7
2016-Dec-07 04:33N 53°51' E 008°55'1413.7
2016-Dec-07 03:33N 53°58' E 008°35'1414.5
2016-Dec-07 02:33N 53°59' E 008°10'1414.2
2016-Dec-07 01:33N 53°57' E 007°47'1514.5
2016-Dec-07 00:31N 53°53' E 007°22'3114.6
2016-Dec-06 22:23N 53°46' E 006°31'3014.0
2016-Dec-06 20:14N 53°37' E 005°42'2313.1
2016-Dec-06 18:30N 53°29' E 005°06'1212.7
2016-Dec-06 17:33N 53°25' E 004°48'1212.3
2016-Dec-06 16:33N 53°14' E 004°36'1312.8
2016-Dec-06 15:32N 53°03' E 004°25'1312.8
2016-Dec-06 14:33N 52°52' E 004°15'1312.7
2016-Dec-06 13:33N 52°41' E 004°04'1212.5
2016-Dec-06 12:33N 52°30' E 003°55'1212.4
2016-Dec-06 11:33N 52°18' E 003°52'1313.4
2016-Dec-06 10:33N 52°05' E 003°55'1111.1
2016-Dec-06 09:33N 51°58' E 004°09'1010.3
2016-Dec-06 08:34N 51°54' E 004°24'1 1.0
2016-Dec-06 07:32N 51°53' E 004°25'0 0.0
2016-Dec-06 06:32N 51°53' E 004°25'0 0.0
2016-Dec-06 05:32N 51°53' E 004°25'0 0.0
2016-Dec-06 04:31N 51°53' E 004°25'0 0.0
2016-Dec-06 03:31N 51°53' E 004°25'0 0.0
2016-Dec-06 02:32N 51°53' E 004°25'0 0.0
2016-Dec-06 01:32N 51°53' E 004°25'0 0.0
2016-Dec-06 00:31N 51°53' E 004°25'0 0.0
2016-Dec-05 23:31N 51°53' E 004°25'0 0.0
2016-Dec-05 22:31N 51°53' E 004°25'1 1.0
2016-Dec-05 21:33N 51°53' E 004°24'3 2.9
2016-Dec-05 20:33N 51°51' E 004°24'7 7.4
2016-Dec-05 19:33N 51°48' E 004°36'7 6.9
2016-Dec-05 18:33N 51°41' E 004°35'1 0.0
2016-Dec-04 20:16N 51°41' E 004°36'0 0.0
2016-Dec-04 09:22N 51°41' E 004°36'0 0.0
2016-Dec-04 07:28N 51°41' E 004°36'0 0.0
2016-Dec-04 05:28N 51°41' E 004°36'0 0.0
2016-Dec-04 04:22N 51°41' E 004°36'0 0.0
2016-Dec-03 16:28N 51°41' E 004°36'0 0.0
2016-Dec-03 09:25N 51°41' E 004°36'0 0.0
2016-Dec-03 03:22N 51°41' E 004°36'0 0.0
2016-Dec-03 02:28N 51°41' E 004°36'0 0.0
2016-Dec-03 00:25N 51°41' E 004°36'0 0.0
2016-Dec-02 22:19N 51°41' E 004°36'0 0.0
2016-Dec-02 21:31N 51°41' E 004°36'0 0.0
2016-Dec-02 20:22N 51°41' E 004°36'0 0.0
2016-Dec-02 19:19N 51°41' E 004°36'0 0.0
2016-Dec-02 18:28N 51°41' E 004°36'0 0.0
2016-Dec-02 16:07N 51°41' E 004°36'0 0.0
2016-Dec-02 15:28N 51°41' E 004°36'0 0.0
2016-Dec-02 14:25N 51°41' E 004°36'0 0.3
2016-Dec-02 13:25N 51°41' E 004°36'0 0.0
2016-Dec-02 11:13N 51°41' E 004°36'1 1.4
2016-Dec-02 10:33N 51°42' E 004°36'8 8.0
2016-Dec-02 09:33N 51°50' E 004°33'9 9.1
2016-Dec-02 08:34N 51°53' E 004°19'1010.4
2016-Dec-02 07:33N 51°59' E 004°06'1313.0
2016-Dec-02 06:33N 52°01' E 003°45'1713.4
2016-Dec-02 05:18N 52°10' E 003°22'6513.3
2016-Dec-02 00:23N 52°58' E 002°09'1113.4
2016-Dec-01 23:33N 53°05' E 001°54'1313.4
2016-Dec-01 22:33N 53°10' E 001°33'7113.0
2016-Dec-01 17:04N 54°01' E 000°10'714.0
2016-Dec-01 16:33N 54°07' E 000°02'1514.5
2016-Dec-01 15:33N 54°18' W 000°14'4614.1
2016-Dec-01 12:16N 54°52' W 001°08'1013.4
2016-Dec-01 11:33N 54°60' W 001°18'10 9.9
2016-Dec-01 10:32N 55°07' W 001°30'0 0.0
2016-Dec-01 09:32N 55°07' W 001°30'0 0.0
2016-Dec-01 08:32N 55°07' W 001°30'0 0.0
2016-Dec-01 07:32N 55°07' W 001°30'0 0.0
2016-Dec-01 06:32N 55°07' W 001°30'0 0.0
2016-Dec-01 05:32N 55°07' W 001°30'0 0.0
2016-Dec-01 04:29N 55°07' W 001°30'0 0.0
2016-Dec-01 03:32N 55°07' W 001°30'0 0.0
2016-Dec-01 02:32N 55°07' W 001°30'0 0.0
2016-Dec-01 01:32N 55°07' W 001°30'0 0.0
2016-Dec-01 00:32N 55°07' W 001°30'0 0.0
2016-Nov-30 23:32N 55°07' W 001°30'1 1.0
2016-Nov-30 22:33N 55°07' W 001°29'10 9.6
2016-Nov-30 21:33N 55°00' W 001°16'4214.0
2016-Nov-30 18:32N 54°28' W 000°29'1313.0
2016-Nov-30 17:34N 54°18' W 000°15'1212.3
2016-Nov-30 16:33N 54°09' W 000°01'7313.6
2016-Nov-30 11:10N 53°14' E 001°21'913.9
2016-Nov-30 10:33N 53°10' E 001°34'1313.0
2016-Nov-30 09:33N 53°05' E 001°54'7913.0
2016-Nov-30 03:30N 52°11' E 003°28'1313.8
2016-Nov-30 02:33N 52°04' E 003°46'1111.2
2016-Nov-30 01:34N 51°60' E 004°02'1212.1
2016-Nov-30 00:33N 51°53' E 004°19'9 9.5
2016-Nov-29 23:34N 51°50' E 004°33'8 7.7
2016-Nov-29 22:33N 51°42' E 004°36'1 1.0
2016-Nov-29 21:30N 51°41' E 004°36'0 0.0
2016-Nov-29 20:26N 51°41' E 004°36'0 0.0
2016-Nov-29 19:27N 51°41' E 004°36'0 0.0
2016-Nov-29 18:23N 51°41' E 004°36'0 0.0
2016-Nov-29 17:29N 51°41' E 004°36'0 0.0
2016-Nov-29 16:26N 51°41' E 004°36'0 0.0
2016-Nov-29 15:33N 51°41' E 004°36'0 0.0
2016-Nov-29 14:29N 51°41' E 004°36'0 0.0
2016-Nov-29 13:12N 51°41' E 004°36'0 0.0
2016-Nov-29 12:33N 51°41' E 004°36'0 0.0
2016-Nov-29 11:33N 51°41' E 004°36'0 0.0
2016-Nov-29 10:21N 51°41' E 004°36'0 0.0
2016-Nov-29 08:21N 51°41' E 004°36'0 0.0
2016-Nov-29 07:30N 51°41' E 004°36'0 0.0
2016-Nov-29 06:27N 51°41' E 004°36'0 0.0
2016-Nov-29 05:30N 51°41' E 004°36'0 0.0
2016-Nov-29 04:33N 51°41' E 004°36'0 0.0
2016-Nov-29 03:27N 51°41' E 004°36'0 0.0
2016-Nov-29 02:33N 51°41' E 004°36'0 0.0
2016-Nov-29 01:12N 51°41' E 004°36'0 0.0
2016-Nov-28 23:24N 51°41' E 004°36'0 0.0
2016-Nov-28 22:08N 51°41' E 004°36'0 0.0
2016-Nov-28 21:33N 51°41' E 004°36'0 0.0
2016-Nov-28 20:33N 51°41' E 004°36'0 0.0
2016-Nov-28 19:33N 51°41' E 004°36'0 0.0
2016-Nov-28 18:33N 51°41' E 004°36'0 0.0
2016-Nov-28 17:33N 51°41' E 004°36'0 0.0
2016-Nov-28 16:33N 51°41' E 004°36'0 0.0
2016-Nov-28 15:33N 51°41' E 004°36'7 7.1
2016-Nov-28 14:33N 51°48' E 004°37'8 8.2
2016-Nov-28 13:33N 51°51' E 004°24'1110.8
2016-Nov-28 12:33N 51°57' E 004°10'1312.8
2016-Nov-28 11:33N 51°60' E 003°50'8614.4
2016-Nov-28 05:34N 52°59' E 002°07'  

Dump ship's entire track history